Bay Sprit I I — WDE9083 — position and weather

sailwx.info

Track history (hours):
 
Tides and Currents Weather Stations Pressure Air Temp Water Temp Dewpoint Dewpoint Depression Visibility Wind Speed Wind Dir Waves Ship Positions

Bay Sprit I I

Owner: The Florida Aqurium, Brandon, FL. More information available from US FCC via Universal Licensing System and Coast Guard Vessel Documentation Center.

Last reported at 2017-Sep-18 14:09 UTC. Time now 2017-Sep-19 19:09 UTC.
Position N 27°57' W 082°27'.

Length 22 m.

Type: Passenger vessel. MMSI: 367413230.

Date/timePositionNaut miles runAvg speedWind from/ knotsBaromVisibWave heightAir tempDewpointWater temp
2017-Sep-18 14:09N 27°57' W 082°27'0 0.1
2017-Sep-18 11:56N 27°56' W 082°27'0 0.6
2017-Sep-18 11:28N 27°57' W 082°27'0 0.0
2017-Sep-17 21:22N 27°57' W 082°27'1 3.8
2017-Sep-17 21:00N 27°55' W 082°27'3 5.0
2017-Sep-17 20:30N 27°53' W 082°27'4 7.8
2017-Sep-17 19:59N 27°57' W 082°27'2 3.4
2017-Sep-17 19:30N 27°55' W 082°27'3 5.5
2017-Sep-17 19:00N 27°52' W 082°27'4 8.1
2017-Sep-17 18:28N 27°57' W 082°27'1 2.9
2017-Sep-17 18:00N 27°55' W 082°27'3 7.0
2017-Sep-17 17:30N 27°52' W 082°27'5 9.1
2017-Sep-17 17:00N 27°56' W 082°27'0 0.0
2017-Sep-16 21:22N 27°57' W 082°27'1 4.0
2017-Sep-16 21:00N 27°55' W 082°27'2 3.6
2017-Sep-16 20:27N 27°53' W 082°26'3 7.1
2017-Sep-16 20:00N 27°56' W 082°27'1 1.7
2017-Sep-16 19:30N 27°55' W 082°27'3 6.7
2017-Sep-16 19:00N 27°52' W 082°27'5 8.7
2017-Sep-16 18:29N 27°57' W 082°27'2 3.6
2017-Sep-16 18:01N 27°55' W 082°27'3 6.1
2017-Sep-16 17:30N 27°52' W 082°27'5 9.3
2017-Sep-16 17:00N 27°56' W 082°27'0 0.2
2017-Sep-16 16:30N 27°57' W 082°27'0 0.0
2017-Sep-15 19:38N 27°57' W 082°27'0 0.0
2017-Sep-15 19:29N 27°57' W 082°27'0 0.0
2017-Sep-15 18:59N 27°57' W 082°27'0 0.0
2017-Sep-15 18:29N 27°57' W 082°27'0 0.0
2017-Sep-15 17:59N 27°57' W 082°27'0 0.0
2017-Sep-13 19:52N 27°57' W 082°27'1 3.7
2017-Sep-13 19:30N 27°55' W 082°27'3 5.6
2017-Sep-13 18:58N 27°52' W 082°27'4 9.0
2017-Sep-13 18:30N 27°56' W 082°27'1 2.1
2017-Sep-13 18:00N 27°55' W 082°27'2 4.1
2017-Sep-13 17:30N 27°53' W 082°27'3 6.1
2017-Sep-13 17:00N 27°56' W 082°27'0 0.3
2017-Sep-13 16:29N 27°57' W 082°27'0 0.0
2017-Sep-13 15:59N 27°57' W 082°27'0 0.0
2017-Sep-13 15:29N 27°57' W 082°27'0 0.0
2017-Sep-13 14:59N 27°57' W 082°27'0 0.0
2017-Sep-13 14:29N 27°57' W 082°27'0 0.0
2017-Sep-13 13:59N 27°57' W 082°27'0 0.0
2017-Sep-12 19:46N 27°57' W 082°27'  
2017-Sep-08 15:01N 27°55' W 082°27'0 9.2
2017-Sep-08 15:00N 27°56' W 082°27'1 2.1
2017-Sep-08 14:29N 27°57' W 082°27'  
Track history (hours):
 
Tides and Currents Weather Stations Pressure Air Temp Water Temp Dewpoint Dewpoint Depression Visibility Wind Speed Wind Dir Waves Ship Positions

Bay Sprit I I

Owner: The Florida Aqurium, Brandon, FL. More information available from US FCC via Universal Licensing System and Coast Guard Vessel Documentation Center.

Last reported at 2017-Sep-18 14:09 UTC. Time now 2017-Sep-19 19:09 UTC.
Position N 27°57' W 082°27'.

Length 22 m.

Type: Passenger vessel. MMSI: 367413230.

Date/timePositionNaut miles runAvg speedWind from/ knotsBaromVisibWave heightAir tempDewpointWater temp
2017-Sep-18 14:09N 27°57' W 082°27'0 0.1
2017-Sep-18 11:56N 27°56' W 082°27'0 0.6
2017-Sep-18 11:28N 27°57' W 082°27'0 0.0
2017-Sep-17 21:22N 27°57' W 082°27'1 3.8
2017-Sep-17 21:00N 27°55' W 082°27'3 5.0
2017-Sep-17 20:30N 27°53' W 082°27'4 7.8
2017-Sep-17 19:59N 27°57' W 082°27'2 3.4
2017-Sep-17 19:30N 27°55' W 082°27'3 5.5
2017-Sep-17 19:00N 27°52' W 082°27'4 8.1
2017-Sep-17 18:28N 27°57' W 082°27'1 2.9
2017-Sep-17 18:00N 27°55' W 082°27'3 7.0
2017-Sep-17 17:30N 27°52' W 082°27'5 9.1
2017-Sep-17 17:00N 27°56' W 082°27'0 0.0
2017-Sep-16 21:22N 27°57' W 082°27'1 4.0
2017-Sep-16 21:00N 27°55' W 082°27'2 3.6
2017-Sep-16 20:27N 27°53' W 082°26'3 7.1
2017-Sep-16 20:00N 27°56' W 082°27'1 1.7
2017-Sep-16 19:30N 27°55' W 082°27'3 6.7
2017-Sep-16 19:00N 27°52' W 082°27'5 8.7
2017-Sep-16 18:29N 27°57' W 082°27'2 3.6
2017-Sep-16 18:01N 27°55' W 082°27'3 6.1
2017-Sep-16 17:30N 27°52' W 082°27'5 9.3
2017-Sep-16 17:00N 27°56' W 082°27'0 0.2
2017-Sep-16 16:30N 27°57' W 082°27'0 0.0
2017-Sep-15 19:38N 27°57' W 082°27'0 0.0
2017-Sep-15 19:29N 27°57' W 082°27'0 0.0
2017-Sep-15 18:59N 27°57' W 082°27'0 0.0
2017-Sep-15 18:29N 27°57' W 082°27'0 0.0
2017-Sep-15 17:59N 27°57' W 082°27'0 0.0
2017-Sep-13 19:52N 27°57' W 082°27'1 3.7
2017-Sep-13 19:30N 27°55' W 082°27'3 5.6
2017-Sep-13 18:58N 27°52' W 082°27'4 9.0
2017-Sep-13 18:30N 27°56' W 082°27'1 2.1
2017-Sep-13 18:00N 27°55' W 082°27'2 4.1
2017-Sep-13 17:30N 27°53' W 082°27'3 6.1
2017-Sep-13 17:00N 27°56' W 082°27'0 0.3
2017-Sep-13 16:29N 27°57' W 082°27'0 0.0
2017-Sep-13 15:59N 27°57' W 082°27'0 0.0
2017-Sep-13 15:29N 27°57' W 082°27'0 0.0
2017-Sep-13 14:59N 27°57' W 082°27'0 0.0
2017-Sep-13 14:29N 27°57' W 082°27'0 0.0
2017-Sep-13 13:59N 27°57' W 082°27'0 0.0
2017-Sep-12 19:46N 27°57' W 082°27'  
2017-Sep-08 15:01N 27°55' W 082°27'0 9.2
2017-Sep-08 15:00N 27°56' W 082°27'1 2.1
2017-Sep-08 14:29N 27°57' W 082°27'  

Dump ship's entire track history